Time;durP1;ratioP1;P1;durP2;ratioP2;P2;SDS_P1;SDS_P2;PMS_P1;PMS_P2;Temp;Humidity;BMP_temperature;BMP_pressure;BME280_temperature;BME280_humidity;BME280_pressure;Samples;Min_cycle;Max_cycle;Signal;HPM_P1;HPM_P2
2022/04/15 00:03:00;;;;;;;6.18;3.28;;;;;;;;;;5052680;28;20049;-52
2022/04/15 00:05:45;;;;;;;6.28;3.05;;;;;;;;;;5053893;28;20033;-53
2022/04/15 00:08:29;;;;;;;5.35;3.05;;;;;;;;;;5052613;28;20480;-52
2022/04/15 00:11:14;;;;;;;5.47;3.45;;;;;;;;;;5053476;28;20486;-49
2022/04/15 00:14:00;;;;;;;7.70;3.33;;;;;;;;;;5053749;28;20037;-50
2022/04/15 00:16:45;;;;;;;5.93;3.70;;;;;;;;;;5053661;28;20412;-51
2022/04/15 00:19:29;;;;;;;6.30;3.50;;;;;;;;;;5053534;28;20199;-50
2022/04/15 00:22:14;;;;;;;8.70;3.78;;;;;;;;;;5053360;28;20099;-53
2022/04/15 00:24:58;;;;;;;10.18;4.80;;;;;;;;;;5053349;28;20048;-53
2022/04/15 00:27:43;;;;;;;10.90;4.30;;;;;;;;;;5053134;28;20178;-53
2022/04/15 00:30:28;;;;;;;11.38;4.70;;;;;;;;;;5053385;28;20045;-52
2022/04/15 00:33:13;;;;;;;9.02;4.53;;;;;;;;;;5024685;28;20158;-54
2022/04/15 00:35:58;;;;;;;9.52;4.50;;;;;;;;;;5053478;28;20148;-50
2022/04/15 00:38:43;;;;;;;11.02;4.95;;;;;;;;;;5053600;28;20061;-50
2022/04/15 00:41:27;;;;;;;9.77;5.50;;;;;;;;;;5024437;28;20171;-51
2022/04/15 00:44:14;;;;;;;10.77;4.78;;;;;;;;;;5053136;28;20086;-54
2022/04/15 00:46:59;;;;;;;11.40;4.65;;;;;;;;;;5053047;28;20055;-53
2022/04/15 00:49:43;;;;;;;9.85;4.95;;;;;;;;;;5053196;28;20507;-52
2022/04/15 00:52:32;;;;;;;13.07;5.05;;;;;;;;;;5052970;28;20041;-53
2022/04/15 00:55:18;;;;;;;12.85;5.35;;;;;;;;;;5052838;28;20107;-51
2022/04/15 00:58:03;;;;;;;10.68;5.07;;;;;;;;;;5052831;28;20163;-51
2022/04/15 01:00:53;;;;;;;9.13;4.60;;;;;;;;;;5051101;28;20063;-51
2022/04/15 01:03:37;;;;;;;13.13;4.65;;;;;;;;;;5051587;28;20037;-49
2022/04/15 01:06:22;;;;;;;8.02;4.68;;;;;;;;;;5049861;28;20049;-49
2022/04/15 01:09:08;;;;;;;10.35;5.00;;;;;;;;;;5052681;28;20052;-50
2022/04/15 01:11:53;;;;;;;11.77;5.40;;;;;;;;;;5051703;28;20476;-51
2022/04/15 01:14:38;;;;;;;14.38;5.78;;;;;;;;;;5052377;28;20116;-52
2022/04/15 01:17:22;;;;;;;13.60;6.10;;;;;;;;;;5051448;28;20060;-53
2022/04/15 01:20:08;;;;;;;13.25;6.22;;;;;;;;;;5050269;28;20341;-50
2022/04/15 01:23:11;;;;;;;18.95;6.45;;;;;;;;;;5052536;28;20401;-48
2022/04/15 01:25:56;;;;;;;18.55;7.95;;;;;;;;;;5052561;28;20060;-49
2022/04/15 01:28:40;;;;;;;17.67;7.97;;;;;;;;;;5052303;28;20049;-50
2022/04/15 01:31:29;;;;;;;23.98;9.98;;;;;;;;;;5052276;28;20077;-53
2022/04/15 01:34:14;;;;;;;20.40;8.65;;;;;;;;;;5052391;28;20435;-52
2022/04/15 01:37:03;;;;;;;26.63;9.82;;;;;;;;;;5052375;28;20393;-49
2022/04/15 01:39:48;;;;;;;22.90;9.25;;;;;;;;;;5052203;28;20041;-53
2022/04/15 01:42:33;;;;;;;22.95;10.18;;;;;;;;;;5051922;28;20052;-51
2022/04/15 01:45:17;;;;;;;21.08;9.68;;;;;;;;;;5050972;28;20095;-49
2022/04/15 01:48:02;;;;;;;21.48;9.38;;;;;;;;;;5052661;28;20063;-49
2022/04/15 01:50:47;;;;;;;17.75;7.90;;;;;;;;;;5052415;28;20068;-50
2022/04/15 01:53:32;;;;;;;17.83;8.75;;;;;;;;;;5051218;28;20037;-52
2022/04/15 01:56:17;;;;;;;21.27;9.05;;;;;;;;;;5052196;28;20400;-53
2022/04/15 01:59:01;;;;;;;22.70;9.23;;;;;;;;;;5052230;28;20041;-48
2022/04/15 02:01:46;;;;;;;19.10;8.20;;;;;;;;;;5051948;28;20099;-52
2022/04/15 02:04:30;;;;;;;17.50;8.45;;;;;;;;;;5036889;28;20048;-50
2022/04/15 02:07:15;;;;;;;14.18;7.80;;;;;;;;;;5051069;28;20496;-52
2022/04/15 02:09:59;;;;;;;13.52;6.95;;;;;;;;;;5052094;28;20038;-53
2022/04/15 02:12:44;;;;;;;14.80;7.63;;;;;;;;;;5045007;28;20052;-52
2022/04/15 02:15:28;;;;;;;17.60;7.93;;;;;;;;;;5050921;28;20045;-52
2022/04/15 02:18:13;;;;;;;15.32;7.57;;;;;;;;;;5051899;28;20396;-52
2022/04/15 02:20:57;;;;;;;18.15;8.27;;;;;;;;;;5051061;28;20385;-51
2022/04/15 02:23:42;;;;;;;16.10;7.82;;;;;;;;;;5051991;28;20087;-52
2022/04/15 02:26:26;;;;;;;14.57;7.90;;;;;;;;;;5050750;28;20068;-54
2022/04/15 02:29:11;;;;;;;16.40;7.50;;;;;;;;;;5051775;28;20377;-51
2022/04/15 02:31:55;;;;;;;13.45;7.28;;;;;;;;;;5051241;28;20051;-48
2022/04/15 02:34:40;;;;;;;15.38;7.72;;;;;;;;;;5050992;28;20041;-50
2022/04/15 02:37:24;;;;;;;18.83;7.78;;;;;;;;;;5051919;28;20052;-53
2022/04/15 02:40:09;;;;;;;19.38;8.20;;;;;;;;;;5050651;28;20057;-50
2022/04/15 02:42:54;;;;;;;15.43;7.85;;;;;;;;;;5051778;28;20041;-53
2022/04/15 02:45:39;;;;;;;20.08;8.48;;;;;;;;;;5052108;28;20056;-51
2022/04/15 02:48:23;;;;;;;17.15;7.93;;;;;;;;;;5050483;28;20037;-51
2022/04/15 02:51:08;;;;;;;18.95;8.32;;;;;;;;;;5051790;28;20052;-50
2022/04/15 02:53:53;;;;;;;14.80;8.13;;;;;;;;;;5051851;28;20041;-53
2022/04/15 02:56:37;;;;;;;13.60;6.18;;;;;;;;;;5054772;28;20055;-51
2022/04/15 02:59:21;;;;;;;15.38;6.00;;;;;;;;;;5055145;28;20094;-52
2022/04/15 03:02:06;;;;;;;13.88;5.80;;;;;;;;;;5055062;28;20069;-52
2022/04/15 03:04:51;;;;;;;12.85;6.60;;;;;;;;;;5055228;28;20068;-49
2022/04/15 03:07:36;;;;;;;14.30;6.50;;;;;;;;;;5039886;28;20499;-50
2022/04/15 03:10:21;;;;;;;13.55;6.40;;;;;;;;;;5055182;28;20186;-53
2022/04/15 03:13:06;;;;;;;13.20;6.45;;;;;;;;;;5054835;28;20041;-50
2022/04/15 03:15:50;;;;;;;13.75;6.45;;;;;;;;;;5054810;28;20110;-53
2022/04/15 03:18:35;;;;;;;13.13;5.97;;;;;;;;;;5053766;28;20503;-52
2022/04/15 03:21:19;;;;;;;13.82;5.45;;;;;;;;;;5054293;28;20048;-49
2022/04/15 03:24:03;;;;;;;11.20;5.82;;;;;;;;;;5053660;28;20056;-51
2022/04/15 03:26:48;;;;;;;13.13;5.75;;;;;;;;;;5054662;28;20041;-53
2022/04/15 03:29:33;;;;;;;11.43;5.75;;;;;;;;;;5054494;28;20072;-52
2022/04/15 03:32:17;;;;;;;10.05;5.75;;;;;;;;;;5054591;28;20049;-53
2022/04/15 03:35:03;;;;;;;9.15;5.03;;;;;;;;;;5067569;28;20072;-50
2022/04/15 03:37:48;;;;;;;9.75;5.20;;;;;;;;;;5054797;28;20041;-52
2022/04/15 03:40:33;;;;;;;13.00;5.53;;;;;;;;;;5053242;28;20056;-51
2022/04/15 03:43:17;;;;;;;9.82;4.60;;;;;;;;;;5054460;28;20048;-51
2022/04/15 03:46:03;;;;;;;7.68;4.32;;;;;;;;;;5053663;28;20056;-51
2022/04/15 03:48:47;;;;;;;6.22;3.70;;;;;;;;;;5054645;28;20123;-51
2022/04/15 03:51:32;;;;;;;8.30;4.53;;;;;;;;;;5053789;28;20522;-52
2022/04/15 03:54:16;;;;;;;6.60;3.97;;;;;;;;;;5054717;28;20045;-50
2022/04/15 03:57:01;;;;;;;5.05;3.13;;;;;;;;;;5054638;28;20045;-50
2022/04/15 03:59:45;;;;;;;8.57;3.40;;;;;;;;;;5054279;28;20404;-49
2022/04/15 04:02:30;;;;;;;8.15;3.58;;;;;;;;;;5051862;28;20499;-50
2022/04/15 04:05:14;;;;;;;6.85;3.47;;;;;;;;;;5054358;28;20044;-51
2022/04/15 04:07:58;;;;;;;7.57;3.25;;;;;;;;;;5053939;28;20041;-52
2022/04/15 04:10:43;;;;;;;6.97;3.50;;;;;;;;;;5053903;28;20416;-49
2022/04/15 04:13:28;;;;;;;8.77;3.35;;;;;;;;;;5053917;28;20049;-49
2022/04/15 04:16:12;;;;;;;6.53;3.38;;;;;;;;;;5053875;28;20054;-54
2022/04/15 04:18:57;;;;;;;6.60;3.45;;;;;;;;;;5054022;28;20057;-53
2022/04/15 04:21:41;;;;;;;7.20;4.25;;;;;;;;;;5053595;28;20099;-51
2022/04/15 04:24:25;;;;;;;11.15;4.95;;;;;;;;;;5053553;28;20045;-48
2022/04/15 04:27:10;;;;;;;12.50;5.22;;;;;;;;;;5053766;28;20053;-50
2022/04/15 04:29:55;;;;;;;10.10;4.95;;;;;;;;;;5053707;28;20045;-53
2022/04/15 04:32:39;;;;;;;8.07;4.40;;;;;;;;;;5052274;28;20439;-54
2022/04/15 04:35:24;;;;;;;10.95;5.47;;;;;;;;;;5053346;28;20091;-49
2022/04/15 04:38:08;;;;;;;7.70;3.95;;;;;;;;;;5052357;28;20107;-49
2022/04/15 04:40:54;;;;;;;8.20;4.03;;;;;;;;;;5053165;28;20113;-51
2022/04/15 04:43:39;;;;;;;6.47;3.80;;;;;;;;;;5052484;28;20389;-49
2022/04/15 04:46:23;;;;;;;10.70;5.20;;;;;;;;;;5052116;28;20041;-52
2022/04/15 04:49:07;;;;;;;10.20;4.25;;;;;;;;;;5053047;28;20056;-49
2022/04/15 04:51:53;;;;;;;6.57;3.78;;;;;;;;;;5053039;28;20045;-47
2022/04/15 04:54:38;;;;;;;6.95;3.80;;;;;;;;;;5052627;28;20037;-52
2022/04/15 04:57:22;;;;;;;8.93;3.80;;;;;;;;;;5052951;28;20476;-54
2022/04/15 05:00:07;;;;;;;6.30;3.10;;;;;;;;;;5053086;28;20396;-52
2022/04/15 05:02:52;;;;;;;6.35;3.60;;;;;;;;;;5053006;28;20060;-53
2022/04/15 05:05:37;;;;;;;5.90;3.75;;;;;;;;;;5051937;28;20404;-51
2022/04/15 05:08:21;;;;;;;6.13;3.10;;;;;;;;;;5051984;28;20431;-53
2022/04/15 05:11:06;;;;;;;7.22;3.90;;;;;;;;;;5053357;28;20048;-53
2022/04/15 05:13:50;;;;;;;8.27;4.20;;;;;;;;;;5051996;28;20052;-53
2022/04/15 05:16:35;;;;;;;5.78;3.75;;;;;;;;;;5051953;28;20040;-54
2022/04/15 05:19:19;;;;;;;9.85;3.90;;;;;;;;;;5051802;28;20429;-52
2022/04/15 05:22:03;;;;;;;12.40;4.68;;;;;;;;;;5052531;28;20072;-52
2022/04/15 05:24:49;;;;;;;8.73;4.60;;;;;;;;;;5052425;28;20041;-54
2022/04/15 05:27:33;;;;;;;10.13;5.22;;;;;;;;;;5051265;28;20111;-51
2022/04/15 05:30:17;;;;;;;11.65;4.90;;;;;;;;;;5051591;28;20053;-52
2022/04/15 05:33:02;;;;;;;9.00;5.00;;;;;;;;;;5052679;28;20055;-52
2022/04/15 05:35:46;;;;;;;9.07;4.60;;;;;;;;;;5051451;28;20069;-51
2022/04/15 05:38:31;;;;;;;9.90;4.43;;;;;;;;;;5052335;28;20052;-53
2022/04/15 05:41:15;;;;;;;7.07;3.85;;;;;;;;;;5052314;28;20071;-54
2022/04/15 05:44:03;;;;;;;9.45;4.93;;;;;;;;;;5051375;28;20045;-50
2022/04/15 05:46:48;;;;;;;10.48;5.07;;;;;;;;;;5051033;28;20044;-49
2022/04/15 05:49:34;;;;;;;8.98;4.43;;;;;;;;;;5051119;28;20073;-52
2022/04/15 05:52:18;;;;;;;9.82;4.20;;;;;;;;;;5052411;28;20068;-53
2022/04/15 05:55:03;;;;;;;5.47;2.97;;;;;;;;;;5052266;28;20045;-50
2022/04/15 05:57:48;;;;;;;7.80;4.05;;;;;;;;;;5052135;28;20112;-52
2022/04/15 06:00:33;;;;;;;8.70;4.95;;;;;;;;;;5052264;28;20089;-60
2022/04/15 06:03:20;;;;;;;9.10;4.38;;;;;;;;;;5052596;28;20041;-59
2022/04/15 06:06:05;;;;;;;8.43;4.22;;;;;;;;;;5051814;28;20048;-60
2022/04/15 06:08:49;;;;;;;11.63;4.80;;;;;;;;;;5049415;28;20041;-58
2022/04/15 06:11:34;;;;;;;7.82;4.25;;;;;;;;;;5050647;28;20048;-57
2022/04/15 06:14:21;;;;;;;9.85;4.57;;;;;;;;;;5052867;28;20041;-58
2022/04/15 06:17:06;;;;;;;6.55;4.22;;;;;;;;;;5052458;28;20041;-59
2022/04/15 06:19:51;;;;;;;11.90;4.95;;;;;;;;;;5052528;28;20052;-60
2022/04/15 06:22:35;;;;;;;12.05;4.70;;;;;;;;;;5052064;28;20499;-55
2022/04/15 06:25:20;;;;;;;8.40;4.95;;;;;;;;;;5051130;28;20049;-57
2022/04/15 06:28:05;;;;;;;6.30;3.53;;;;;;;;;;5048944;28;20098;-52
2022/04/15 06:30:50;;;;;;;8.40;4.70;;;;;;;;;;5040743;28;20060;-57
2022/04/15 06:33:36;;;;;;;8.93;5.00;;;;;;;;;;5052805;28;20033;-57
2022/04/15 06:36:21;;;;;;;9.13;4.35;;;;;;;;;;5052649;28;20044;-58
2022/04/15 06:39:06;;;;;;;8.57;4.47;;;;;;;;;;5063194;28;20136;-58
2022/04/15 06:41:50;;;;;;;8.65;3.85;;;;;;;;;;5034618;28;20404;-57
2022/04/15 06:44:38;;;;;;;9.20;4.35;;;;;;;;;;5035609;28;20060;-59
2022/04/15 06:47:23;;;;;;;9.02;4.85;;;;;;;;;;5038412;28;20035;-57
2022/04/15 06:50:07;;;;;;;9.23;3.70;;;;;;;;;;5054920;28;20037;-52
2022/04/15 06:52:52;;;;;;;8.70;4.57;;;;;;;;;;5055070;28;20051;-61
2022/04/15 06:55:37;;;;;;;11.07;4.85;;;;;;;;;;5053899;28;20055;-61
2022/04/15 06:58:22;;;;;;;7.10;4.53;;;;;;;;;;5052153;28;20392;-59
2022/04/15 07:01:07;;;;;;;9.45;4.80;;;;;;;;;;5038702;28;20040;-57
2022/04/15 07:03:52;;;;;;;8.73;4.63;;;;;;;;;;5053501;28;20045;-59
2022/04/15 07:06:36;;;;;;;7.82;4.60;;;;;;;;;;5054993;28;20439;-58
2022/04/15 07:09:21;;;;;;;8.55;4.32;;;;;;;;;;5054095;28;20050;-59
2022/04/15 07:12:06;;;;;;;9.40;4.60;;;;;;;;;;5055037;28;20072;-58
2022/04/15 07:14:51;;;;;;;10.82;4.60;;;;;;;;;;5067903;28;20416;-59
2022/04/15 07:17:35;;;;;;;10.60;4.45;;;;;;;;;;5054368;28;20053;-58
2022/04/15 07:20:20;;;;;;;8.40;4.45;;;;;;;;;;5080490;28;20079;-52
2022/04/15 07:23:04;;;;;;;10.60;4.88;;;;;;;;;;5053586;28;20041;-52
2022/04/15 07:25:49;;;;;;;9.00;4.57;;;;;;;;;;5053796;28;20472;-53
2022/04/15 07:28:33;;;;;;;8.35;4.32;;;;;;;;;;5053489;28;20060;-51
2022/04/15 07:31:18;;;;;;;10.02;4.65;;;;;;;;;;5050517;28;20053;-53
2022/04/15 07:34:03;;;;;;;6.35;4.25;;;;;;;;;;5051345;28;20040;-52
2022/04/15 07:36:53;;;;;;;7.30;3.67;;;;;;;;;;5051854;28;20079;-51
2022/04/15 07:39:38;;;;;;;8.85;4.10;;;;;;;;;;5051174;28;20116;-54
2022/04/15 07:42:23;;;;;;;7.55;4.35;;;;;;;;;;5046859;28;20041;-52
2022/04/15 07:45:08;;;;;;;8.55;4.05;;;;;;;;;;5053121;28;20132;-59
2022/04/15 07:47:52;;;;;;;7.63;3.75;;;;;;;;;;5041427;28;20389;-61
2022/04/15 07:50:38;;;;;;;7.05;3.20;;;;;;;;;;5039092;28;20055;-59
2022/04/15 07:53:23;;;;;;;9.82;4.00;;;;;;;;;;5053207;28;20053;-58
2022/04/15 07:56:07;;;;;;;11.02;4.40;;;;;;;;;;5045695;28;20041;-58
2022/04/15 07:58:52;;;;;;;10.23;4.53;;;;;;;;;;5046751;28;20041;-59
2022/04/15 08:01:38;;;;;;;6.45;3.92;;;;;;;;;;5045687;28;20042;-59
2022/04/15 08:04:23;;;;;;;8.95;3.97;;;;;;;;;;5051856;28;20120;-58
2022/04/15 08:07:07;;;;;;;6.75;4.43;;;;;;;;;;5051974;28;20041;-58
2022/04/15 08:09:52;;;;;;;7.93;3.65;;;;;;;;;;5043656;28;20040;-60
2022/04/15 08:12:37;;;;;;;11.35;3.30;;;;;;;;;;5035229;28;20068;-60
2022/04/15 08:15:22;;;;;;;5.82;2.78;;;;;;;;;;5049876;28;20037;-65
2022/04/15 08:18:07;;;;;;;10.13;3.30;;;;;;;;;;5051241;28;20053;-58
2022/04/15 08:20:53;;;;;;;7.25;2.85;;;;;;;;;;5051695;28;20071;-57
2022/04/15 08:23:38;;;;;;;7.10;2.22;;;;;;;;;;5038017;28;20033;-60
2022/04/15 08:26:22;;;;;;;8.88;4.80;;;;;;;;;;5043247;28;20131;-58
2022/04/15 08:29:07;;;;;;;8.10;2.53;;;;;;;;;;5053331;28;20667;-59
2022/04/15 08:31:51;;;;;;;6.95;4.20;;;;;;;;;;5046431;28;20491;-59
2022/04/15 08:34:36;;;;;;;6.30;4.13;;;;;;;;;;5031962;28;20297;-56
2022/04/15 08:37:21;;;;;;;8.23;2.67;;;;;;;;;;5032052;28;20045;-59
2022/04/15 08:40:06;;;;;;;5.35;2.25;;;;;;;;;;5032536;28;20102;-57
2022/04/15 08:42:51;;;;;;;7.13;4.90;;;;;;;;;;5053211;28;20040;-60
2022/04/15 08:45:39;;;;;;;8.57;4.53;;;;;;;;;;5052229;28;20045;-60
2022/04/15 08:48:24;;;;;;;8.80;3.25;;;;;;;;;;5050659;28;20084;-59
2022/04/15 08:51:09;;;;;;;6.80;4.55;;;;;;;;;;5051200;28;20048;-57
2022/04/15 08:53:55;;;;;;;7.90;3.60;;;;;;;;;;5048689;28;20037;-58
2022/04/15 08:56:39;;;;;;;6.32;3.55;;;;;;;;;;5072448;28;20033;-58
2022/04/15 08:59:24;;;;;;;9.18;3.88;;;;;;;;;;5051041;28;20041;-58
2022/04/15 09:02:11;;;;;;;8.98;3.47;;;;;;;;;;5052244;28;20037;-58
2022/04/15 09:04:56;;;;;;;8.90;4.53;;;;;;;;;;5051445;28;20033;-62
2022/04/15 09:07:40;;;;;;;8.02;5.15;;;;;;;;;;5049527;28;20456;-57
2022/04/15 09:10:24;;;;;;;6.20;3.25;;;;;;;;;;5051372;28;20107;-60
2022/04/15 09:13:20;;;;;;;8.98;3.58;;;;;;;;;;5046826;28;20041;-58
2022/04/15 09:16:06;;;;;;;11.27;2.95;;;;;;;;;;5061849;28;20049;-59
2022/04/15 09:18:51;;;;;;;10.35;2.53;;;;;;;;;;5049080;28;20768;-59
2022/04/15 09:21:37;;;;;;;8.13;1.83;;;;;;;;;;5051452;28;20112;-59
2022/04/15 09:24:31;;;;;;;9.63;3.58;;;;;;;;;;5058955;28;20090;-52
2022/04/15 09:27:19;;;;;;;10.00;3.03;;;;;;;;;;5040971;28;20067;-56
2022/04/15 09:30:04;;;;;;;10.23;2.78;;;;;;;;;;5038716;28;20504;-58
2022/04/15 09:32:49;;;;;;;11.35;3.15;;;;;;;;;;5049076;28;20056;-57
2022/04/15 09:35:33;;;;;;;7.57;2.40;;;;;;;;;;5048859;28;20033;-53
2022/04/15 09:38:18;;;;;;;14.63;6.65;;;;;;;;;;5051671;28;20041;-57
2022/04/15 09:41:17;;;;;;;13.18;5.90;;;;;;;;;;5052043;28;20068;-59
2022/04/15 09:44:02;;;;;;;9.38;3.63;;;;;;;;;;5052203;28;20043;-58
2022/04/15 09:46:50;;;;;;;5.65;3.15;;;;;;;;;;5050584;28;20045;-57
2022/04/15 09:49:35;;;;;;;6.95;3.20;;;;;;;;;;5045085;28;20111;-59
2022/04/15 09:52:26;;;;;;;5.75;2.65;;;;;;;;;;5039375;28;20420;-59
2022/04/15 09:55:10;;;;;;;11.23;3.25;;;;;;;;;;5045800;28;20053;-60
2022/04/15 09:57:57;;;;;;;8.85;3.47;;;;;;;;;;5040300;28;20590;-59
2022/04/15 10:00:43;;;;;;;6.43;3.30;;;;;;;;;;5049291;28;20568;-61
2022/04/15 10:03:27;;;;;;;5.53;3.50;;;;;;;;;;5042093;28;20100;-59
2022/04/15 10:06:12;;;;;;;5.05;2.97;;;;;;;;;;5054147;28;20037;-57
2022/04/15 10:08:57;;;;;;;4.63;3.22;;;;;;;;;;5049685;28;20127;-60
2022/04/15 10:11:43;;;;;;;8.25;2.97;;;;;;;;;;5045783;28;20061;-58
2022/04/15 10:14:27;;;;;;;6.38;3.63;;;;;;;;;;5051039;28;20033;-58
2022/04/15 10:17:30;;;;;;;9.43;4.15;;;;;;;;;;5045414;28;20062;-60
2022/04/15 10:20:16;;;;;;;6.63;3.78;;;;;;;;;;5042370;28;20042;-55
2022/04/15 10:23:04;;;;;;;8.02;3.80;;;;;;;;;;5053531;28;20041;-60
2022/04/15 10:25:50;;;;;;;6.20;3.65;;;;;;;;;;5039589;28;20049;-52
2022/04/15 10:28:44;;;;;;;6.85;3.53;;;;;;;;;;5051768;28;20044;-60
2022/04/15 10:31:48;;;;;;;5.57;2.85;;;;;;;;;;5045413;28;20064;-61
2022/04/15 10:34:43;;;;;;;7.15;2.80;;;;;;;;;;5031969;28;20045;-63
2022/04/15 10:37:46;;;;;;;4.45;3.20;;;;;;;;;;5044533;28;20037;-60
2022/04/15 10:40:35;;;;;;;6.38;3.22;;;;;;;;;;5036525;28;20408;-60
2022/04/15 10:43:28;;;;;;;5.15;3.05;;;;;;;;;;5050022;28;20065;-61
2022/04/15 10:46:16;;;;;;;6.80;3.03;;;;;;;;;;5053689;28;20049;-61
2022/04/15 10:49:02;;;;;;;4.20;3.00;;;;;;;;;;5054480;28;20072;-60
2022/04/15 10:51:50;;;;;;;4.28;2.85;;;;;;;;;;5046818;28;20099;-60
2022/04/15 10:54:35;;;;;;;6.03;3.17;;;;;;;;;;5043050;28;20503;-62
2022/04/15 10:57:21;;;;;;;7.20;3.15;;;;;;;;;;5037790;28;20048;-64
2022/04/15 11:03:31;;;;;;;5.13;2.58;;;;;;;;;;5051502;28;20079;-64
2022/04/15 11:06:24;;;;;;;4.07;2.10;;;;;;;;;;5055142;28;20547;-65
2022/04/15 11:09:13;;;;;;;6.25;3.70;;;;;;;;;;5039666;28;20065;-57
2022/04/15 11:12:01;;;;;;;6.55;3.10;;;;;;;;;;5050015;28;20036;-49
2022/04/15 11:14:46;;;;;;;6.50;2.78;;;;;;;;;;5034644;28;20048;-66
2022/04/15 11:17:41;;;;;;;7.22;2.90;;;;;;;;;;5018980;28;20477;-65
2022/04/15 11:20:26;;;;;;;4.40;2.92;;;;;;;;;;5034608;28;20045;-68
2022/04/15 11:23:11;;;;;;;5.45;2.55;;;;;;;;;;5034764;28;20045;-64
2022/04/15 11:25:56;;;;;;;5.15;2.42;;;;;;;;;;5034941;28;20049;-64
2022/04/15 11:28:45;;;;;;;5.18;3.00;;;;;;;;;;5054462;28;20040;-66
2022/04/15 11:31:31;;;;;;;6.05;3.35;;;;;;;;;;5054425;28;20485;-62
2022/04/15 11:34:17;;;;;;;15.82;6.32;;;;;;;;;;5053172;28;20051;-65
2022/04/15 11:37:03;;;;;;;4.68;2.58;;;;;;;;;;5053419;28;20045;-56
2022/04/15 11:39:47;;;;;;;4.72;2.90;;;;;;;;;;5054573;28;20044;-61
2022/04/15 11:42:32;;;;;;;7.78;2.88;;;;;;;;;;5053897;28;20049;-60
2022/04/15 11:45:29;;;;;;;6.90;2.90;;;;;;;;;;5053076;28;20045;-58
2022/04/15 11:48:18;;;;;;;6.57;2.63;;;;;;;;;;5039039;28;20045;-60
2022/04/15 11:51:03;;;;;;;4.13;2.67;;;;;;;;;;5054256;28;20485;-49
2022/04/15 11:53:47;;;;;;;5.50;2.70;;;;;;;;;;5054193;28;20048;-53
2022/04/15 11:56:34;;;;;;;5.43;2.45;;;;;;;;;;5054063;28;20095;-53
2022/04/15 11:59:18;;;;;;;4.82;2.40;;;;;;;;;;5054073;28;20044;-53
2022/04/15 12:02:03;;;;;;;6.22;2.83;;;;;;;;;;5053050;28;20033;-45
2022/04/15 12:04:52;;;;;;;4.90;2.75;;;;;;;;;;5052997;28;20044;-43
2022/04/15 12:07:36;;;;;;;4.47;2.53;;;;;;;;;;5053110;28;20048;-44
2022/04/15 12:10:21;;;;;;;3.33;2.15;;;;;;;;;;5053082;28;20423;-44
2022/04/15 12:13:06;;;;;;;6.13;2.40;;;;;;;;;;5052841;28;20075;-45
2022/04/15 12:15:50;;;;;;;4.10;2.65;;;;;;;;;;5052452;28;20053;-45
2022/04/15 12:18:36;;;;;;;5.20;2.05;;;;;;;;;;5053908;28;20064;-43
2022/04/15 12:21:20;;;;;;;5.60;2.70;;;;;;;;;;5053465;28;20118;-43
2022/04/15 12:24:09;;;;;;;5.63;2.25;;;;;;;;;;5053821;28;20047;-42
2022/04/15 12:26:53;;;;;;;3.88;2.30;;;;;;;;;;5052410;28;20047;-43
2022/04/15 12:29:51;;;;;;;3.45;2.33;;;;;;;;;;5052439;28;20127;-44
2022/04/15 12:32:39;;;;;;;3.08;2.03;;;;;;;;;;5052288;28;20041;-44
2022/04/15 12:35:24;;;;;;;4.45;2.20;;;;;;;;;;5038278;28;20090;-42
2022/04/15 12:38:08;;;;;;;4.97;2.03;;;;;;;;;;5038699;28;20053;-45
2022/04/15 12:40:58;;;;;;;3.33;2.08;;;;;;;;;;5053180;28;20119;-44
2022/04/15 12:43:43;;;;;;;4.90;1.92;;;;;;;;;;5053279;28;20453;-42
2022/04/15 12:46:28;;;;;;;3.47;1.98;;;;;;;;;;5024192;28;20071;-43
2022/04/15 12:49:22;;;;;;;3.38;2.28;;;;;;;;;;5052151;28;20045;-45
2022/04/15 12:52:13;;;;;;;3.63;1.80;;;;;;;;;;5052434;28;20072;-42
2022/04/15 12:54:59;;;;;;;4.35;2.90;;;;;;;;;;5053367;28;20041;-59
2022/04/15 12:57:44;;;;;;;3.67;2.28;;;;;;;;;;5053012;28;20503;-63
2022/04/15 13:00:30;;;;;;;3.10;1.88;;;;;;;;;;5052225;28;20041;-61
2022/04/15 13:03:17;;;;;;;6.05;2.17;;;;;;;;;;5051748;28;20499;-56
2022/04/15 13:06:02;;;;;;;4.03;2.22;;;;;;;;;;5049608;28;20037;-61
2022/04/15 13:08:47;;;;;;;3.53;2.30;;;;;;;;;;5047321;28;20042;-62
2022/04/15 13:11:31;;;;;;;6.50;2.60;;;;;;;;;;5036576;28;20040;-59
2022/04/15 13:14:16;;;;;;;3.10;2.05;;;;;;;;;;5045284;28;20424;-60
2022/04/15 13:17:01;;;;;;;2.63;1.80;;;;;;;;;;5041861;28;20048;-60
2022/04/15 13:19:46;;;;;;;4.75;1.58;;;;;;;;;;5042528;28;20044;-61
2022/04/15 13:22:30;;;;;;;4.15;2.28;;;;;;;;;;5032778;28;20389;-60
2022/04/15 13:25:15;;;;;;;3.78;2.10;;;;;;;;;;5032943;28;20488;-59
2022/04/15 13:27:59;;;;;;;4.13;2.22;;;;;;;;;;5053681;28;20048;-60
2022/04/15 13:30:45;;;;;;;6.10;2.30;;;;;;;;;;5051075;28;20435;-58
2022/04/15 13:33:32;;;;;;;2.80;1.80;;;;;;;;;;5051287;28;20069;-58
2022/04/15 13:36:16;;;;;;;4.82;2.55;;;;;;;;;;5052287;28;20045;-58
2022/04/15 13:39:03;;;;;;;7.80;2.20;;;;;;;;;;5043574;28;20390;-58
2022/04/15 13:41:47;;;;;;;1.85;1.60;;;;;;;;;;5031802;28;20037;-58
2022/04/15 13:44:32;;;;;;;2.70;1.65;;;;;;;;;;5067756;28;20071;-59
2022/04/15 13:47:17;;;;;;;3.20;2.15;;;;;;;;;;5052072;28;20140;-58
2022/04/15 13:50:01;;;;;;;3.47;1.83;;;;;;;;;;5078012;28;20048;-58
2022/04/15 13:58:53;;;;;;;3.53;1.35;;;;;;;;;;5031670;28;20064;-57
2022/04/15 14:01:39;;;;;;;3.17;1.73;;;;;;;;;;5031841;28;20048;-59
2022/04/15 14:04:23;;;;;;;9.15;2.13;;;;;;;;;;5031931;28;20045;-58
2022/04/15 14:07:08;;;;;;;2.80;2.00;;;;;;;;;;5032064;28;20088;-58
2022/04/15 14:09:52;;;;;;;4.03;1.65;;;;;;;;;;5042015;28;20403;-58
2022/04/15 14:12:37;;;;;;;2.63;1.20;;;;;;;;;;5051846;28;20143;-59
2022/04/15 14:15:23;;;;;;;2.28;1.38;;;;;;;;;;5051778;28;20045;-60
2022/04/15 14:18:08;;;;;;;4.40;2.30;;;;;;;;;;5051661;28;20052;-58
2022/04/15 14:20:53;;;;;;;3.10;1.98;;;;;;;;;;5050289;28;20037;-57
2022/04/15 14:23:37;;;;;;;2.88;1.33;;;;;;;;;;5050519;28;20068;-57
2022/04/15 14:26:23;;;;;;;3.35;1.48;;;;;;;;;;5051529;28;20041;-58
2022/04/15 14:29:07;;;;;;;2.20;1.20;;;;;;;;;;5051463;28;20099;-58
2022/04/15 14:31:52;;;;;;;2.97;1.58;;;;;;;;;;5050478;28;20496;-58
2022/04/15 14:34:38;;;;;;;3.20;1.55;;;;;;;;;;5051211;28;20064;-58
2022/04/15 14:37:23;;;;;;;1.88;1.40;;;;;;;;;;5051383;28;20041;-58
2022/04/15 14:40:08;;;;;;;2.35;1.50;;;;;;;;;;5050201;28;20063;-57
2022/04/15 14:42:53;;;;;;;2.35;1.45;;;;;;;;;;5064476;28;20052;-58
2022/04/15 14:45:38;;;;;;;3.38;1.35;;;;;;;;;;5051339;28;20041;-59
2022/04/15 14:48:22;;;;;;;3.00;1.40;;;;;;;;;;5050447;28;20056;-59
2022/04/15 14:51:07;;;;;;;2.05;1.20;;;;;;;;;;5052457;28;20047;-59
2022/04/15 14:53:52;;;;;;;1.90;1.10;;;;;;;;;;5054797;28;20041;-58
2022/04/15 14:56:36;;;;;;;1.77;1.00;;;;;;;;;;5054782;28;20484;-60
2022/04/15 14:59:21;;;;;;;2.55;1.33;;;;;;;;;;5055012;28;20404;-58
2022/04/15 15:02:07;;;;;;;1.25;0.98;;;;;;;;;;5054638;28;20446;-59
2022/04/15 15:04:51;;;;;;;1.17;0.90;;;;;;;;;;5053803;28;20049;-57
2022/04/15 15:07:36;;;;;;;2.17;1.10;;;;;;;;;;5053810;28;20037;-58
2022/04/15 15:10:20;;;;;;;1.83;1.20;;;;;;;;;;5054837;28;20045;-58
2022/04/15 15:13:05;;;;;;;2.55;1.40;;;;;;;;;;5039793;28;20488;-58
2022/04/15 15:15:50;;;;;;;1.98;1.10;;;;;;;;;;5054399;28;20067;-58
2022/04/15 15:18:34;;;;;;;2.00;1.40;;;;;;;;;;5054591;28;20061;-58
2022/04/15 15:21:19;;;;;;;1.95;1.52;;;;;;;;;;5039376;28;20041;-59
2022/04/15 15:30:10;;;;;;;2.25;1.15;;;;;;;;;;5054332;28;20385;-59
2022/04/15 15:32:54;;;;;;;2.15;1.40;;;;;;;;;;5067379;28;20045;-59
2022/04/15 15:35:39;;;;;;;2.47;1.25;;;;;;;;;;5054066;28;20053;-59
2022/04/15 15:38:24;;;;;;;1.85;1.15;;;;;;;;;;5054095;28;20041;-59
2022/04/15 15:41:13;;;;;;;1.95;1.40;;;;;;;;;;5054074;28;20048;-58
2022/04/15 15:43:57;;;;;;;2.03;1.20;;;;;;;;;;5054049;28;20037;-59
2022/04/15 15:46:41;;;;;;;1.83;1.30;;;;;;;;;;5053920;28;20048;-58
2022/04/15 15:49:26;;;;;;;2.58;1.55;;;;;;;;;;5053903;28;20041;-58
2022/04/15 15:52:11;;;;;;;3.17;1.50;;;;;;;;;;5053616;28;20045;-58
2022/04/15 15:54:55;;;;;;;2.53;1.25;;;;;;;;;;5066795;28;20396;-58
2022/04/15 15:57:41;;;;;;;2.08;1.55;;;;;;;;;;5053540;28;20507;-58
2022/04/15 16:00:26;;;;;;;2.03;1.40;;;;;;;;;;5067139;28;20064;-58
2022/04/15 16:03:11;;;;;;;3.80;2.00;;;;;;;;;;5051829;28;20052;-58
2022/04/15 16:05:55;;;;;;;3.05;2.08;;;;;;;;;;5053801;28;20503;-58
2022/04/15 16:08:41;;;;;;;1.98;1.30;;;;;;;;;;5053857;28;20053;-58
2022/04/15 16:11:26;;;;;;;4.18;2.38;;;;;;;;;;5052241;28;20041;-58
2022/04/15 16:14:10;;;;;;;4.90;1.60;;;;;;;;;;5053198;28;20049;-57
2022/04/15 16:16:55;;;;;;;2.40;1.55;;;;;;;;;;5053069;28;20043;-58
2022/04/15 16:19:39;;;;;;;4.30;2.75;;;;;;;;;;5053327;28;20041;-59
2022/04/15 16:22:24;;;;;;;3.35;2.35;;;;;;;;;;5053529;28;20074;-58
2022/04/15 16:25:09;;;;;;;2.78;1.80;;;;;;;;;;5053174;28;20051;-58
2022/04/15 16:27:54;;;;;;;3.17;1.67;;;;;;;;;;5051937;28;20543;-57
2022/04/15 16:30:39;;;;;;;2.53;1.17;;;;;;;;;;5053066;28;20037;-58
2022/04/15 16:33:24;;;;;;;2.70;1.92;;;;;;;;;;5053103;28;20120;-59
2022/04/15 16:36:09;;;;;;;5.53;2.53;;;;;;;;;;5053064;28;20052;-59
2022/04/15 16:38:54;;;;;;;1.95;0.95;;;;;;;;;;5051906;28;20041;-58
2022/04/15 16:41:39;;;;;;;3.03;1.70;;;;;;;;;;5052886;28;20475;-57
2022/04/15 16:44:23;;;;;;;2.72;1.88;;;;;;;;;;5052988;28;20041;-58
2022/04/15 16:47:08;;;;;;;4.25;2.15;;;;;;;;;;5051764;28;20045;-59